Budapest Lorinc, Hungary

4:35 PM CEST on September 20, 2014 (GMT +0200)
Budapest | Change Station
CLOSE
Current Station
Personal Weather Station
Location: Budapest, BUDAPEST
Elevation: 417 ft
Nearby Weather Stations

Elev 417 ft 47.42 °N, 19.21 °E | Updated 5 minutes ago

Clear
Clear
76.8 °F
Feels Like 79 °F
N
0.0
Wind Variable Wind from South
Gusts 0.7 mph

Today
High -- | Low -- °F
--% Chance of Precip.
Yesterday
High -- | Low -- °F
Precip. -- in
6:26 AM 6:45 PM
Waning Crescent, 12% visible
Pressure 29.95 in
Visibility -9999.0 miles
Clouds
Heat Index 79 °F
Dew Point 63 °F
Humidity 62%
Rainfall 0.00 in
Snow Depth Not available.
UV Not available.
Pollen Not available.
Air Quality Not available.
Flu Activity Not available.
METAR LHBP 201430Z VRB03KT CAVOK 23/16 Q1014 NOSIG

More Conditions Fewer Conditions

Pressure 29.95 in
Visibility -9999.0 miles
Clouds
Heat Index 79 °F
Dew Point 63 °F
Humidity 62%
Rainfall 0.00 in
Snow Depth Not available.
UV Not available.
Pollen Not available.
Air Quality Not available.
Flu Activity Not available.
METAR LHBP 201430Z VRB03KT CAVOK 23/16 Q1014 NOSIG

More Conditions Fewer Conditions

10-Day Weather Forecast

Almanac

Astronomy

Sep. 20, 2014 Rise Set
Actual Time 6:26 AM CEST 6:45 PM CEST
Civil Twilight 5:56 AM CEST 7:16 PM CEST
Nautical Twilight 5:19 AM CEST 7:52 PM CEST
Astronomical Twilight 4:42 AM CEST 8:29 PM CEST
Moon 2:37 AM CEST 4:49 PM CEST
Length of Visible Light 13h 20m
Length of Day
12h 18m
Tomorrow will be 3m 23s shorter.
Waning Crescent, 12% of the Moon is Illuminated
Today
Waning Crescent
Sep 24
New
Oct 1
First Quarter
Oct 8
Full
Oct 15
Last Quarter

Today's Extremes

Country Highs Country Lows

Community

WunderPhotos

Upload Photos

1,754,872 photos uploaded!

WunderBlogs® & News

Nearby

Snow Depth

Not available.

Earthquake Activity

City Distance Mag. Time & Date
No recent earthquake activity has been reported nearby.
Minimum magnitude displayed is 2.5.

Coastal Water Temperatures

Place Temperature
No Stations Reporting

Nearby Weather Stations